ASA145N LOWI-EDDH
Flight info
| Callsign | ASA145N |
|---|---|
| Flight time | 1h 19m |
| Altitude | 36000 |
| Route | KOGOL M726 KEMES DCT ABGUS DCT DIRBO/N0409F230 T902 RARUP RARUP6A |
| Aircraft | B738/M-SDE2E3FGHIRWXY/LB1 |
Departure
| Time | 2026-04-21 13:58 |
|---|---|
| Airport | Innsbruck Airport (LOWI) |
Arrival
| Time | 2026-04-21 15:17 |
|---|---|
| Airport | Hamburg Helmut Schmidt Airport (EDDH) |
| Time | Latitude | Longitude | Altitude | Speed | Heading |
|---|---|---|---|---|---|
| 2026-04-21 13:37 | 47.25841 | 11.35237 | 1897 ft | 0 kts | 173° |
| 2026-04-21 13:45 | 47.25843 | 11.35237 | 1896 ft | 2 kts | 174° |
| 2026-04-21 13:45 | 47.25865 | 11.35233 | 1894 ft | 4 kts | 180° |
| 2026-04-21 13:45 | 47.25888 | 11.35242 | 1893 ft | 4 kts | 226° |
| 2026-04-21 13:46 | 47.25901 | 11.35273 | 1892 ft | 2 kts | 252° |
| 2026-04-21 13:46 | 47.25903 | 11.35280 | 1893 ft | 0 kts | 252° |
| 2026-04-21 13:48 | 47.25902 | 11.35279 | 1892 ft | 1 kts | 252° |
| 2026-04-21 13:48 | 47.25893 | 11.35233 | 1896 ft | 12 kts | 256° |
| 2026-04-21 13:48 | 47.25869 | 11.35035 | 1899 ft | 26 kts | 261° |
| 2026-04-21 13:49 | 47.25845 | 11.34746 | 1896 ft | 28 kts | 261° |
| 2026-04-21 13:49 | 47.25816 | 11.34469 | 1901 ft | 26 kts | 261° |
| 2026-04-21 13:49 | 47.25787 | 11.34210 | 1904 ft | 25 kts | 260° |
| 2026-04-21 13:49 | 47.25779 | 11.33967 | 1894 ft | 23 kts | 285° |
| 2026-04-21 13:50 | 47.25808 | 11.33882 | 1900 ft | 0 kts | 307° |
| 2026-04-21 13:54 | 47.25809 | 11.33882 | 1900 ft | 0 kts | 307° |
| 2026-04-21 13:54 | 47.25823 | 11.33854 | 1897 ft | 9 kts | 306° |
| 2026-04-21 13:55 | 47.25882 | 11.33731 | 1906 ft | 18 kts | 305° |
| 2026-04-21 13:55 | 47.25929 | 11.33574 | 1906 ft | 17 kts | 265° |
| 2026-04-21 13:55 | 47.25915 | 11.33402 | 1905 ft | 17 kts | 263° |
| 2026-04-21 13:55 | 47.25891 | 11.33238 | 1893 ft | 16 kts | 237° |
| 2026-04-21 13:56 | 47.25842 | 11.33101 | 1901 ft | 15 kts | 288° |
| 2026-04-21 13:56 | 47.25881 | 11.33101 | 1904 ft | 5 kts | 62° |
| 2026-04-21 13:56 | 47.25887 | 11.33150 | 1902 ft | 5 kts | 83° |
| 2026-04-21 13:56 | 47.25892 | 11.33201 | 1897 ft | 5 kts | 82° |
| 2026-04-21 13:57 | 47.25894 | 11.33224 | 1900 ft | 0 kts | 82° |
| 2026-04-21 13:57 | 47.25918 | 11.33446 | 1899 ft | 66 kts | 81° |
| 2026-04-21 13:58 | 47.26037 | 11.34550 | 1894 ft | 152 kts | 81° |
| 2026-04-21 13:58 | 47.26213 | 11.36275 | 2647 ft | 173 kts | 84° |
| 2026-04-21 13:58 | 47.26392 | 11.38062 | 3708 ft | 185 kts | 84° |
| 2026-04-21 13:58 | 47.26602 | 11.40025 | 4734 ft | 199 kts | 85° |
| 2026-04-21 13:59 | 47.26841 | 11.42107 | 5526 ft | 211 kts | 85° |
| 2026-04-21 13:59 | 47.27074 | 11.44270 | 6405 ft | 215 kts | 85° |
| 2026-04-21 13:59 | 47.27470 | 11.46420 | 7305 ft | 221 kts | 72° |
| 2026-04-21 13:59 | 47.28015 | 11.48610 | 7973 ft | 236 kts | 75° |
| 2026-04-21 14:00 | 47.28609 | 11.50942 | 8448 ft | 252 kts | 66° |
| 2026-04-21 14:00 | 47.29339 | 11.53264 | 9273 ft | 242 kts | 65° |
| 2026-04-21 14:00 | 47.29940 | 11.55491 | 10291 ft | 232 kts | 74° |
| 2026-04-21 14:00 | 47.30373 | 11.57869 | 10805 ft | 250 kts | 71° |
| 2026-04-21 14:01 | 47.30972 | 11.60375 | 11126 ft | 267 kts | 65° |
| 2026-04-21 14:01 | 47.31751 | 11.62925 | 11511 ft | 278 kts | 58° |
| 2026-04-21 14:01 | 47.32650 | 11.65504 | 11934 ft | 288 kts | 56° |
| 2026-04-21 14:01 | 47.33613 | 11.68079 | 12403 ft | 290 kts | 44° |
| 2026-04-21 14:02 | 47.35156 | 11.69862 | 12638 ft | 283 kts | 9° |
| 2026-04-21 14:02 | 47.37047 | 11.70196 | 12477 ft | 268 kts | 340° |
| 2026-04-21 14:02 | 47.38786 | 11.69394 | 12221 ft | 257 kts | 324° |
| 2026-04-21 14:03 | 47.41512 | 11.66363 | 11776 ft | 240 kts | 311° |
| 2026-04-21 14:03 | 47.42769 | 11.64755 | 11620 ft | 238 kts | 310° |
| 2026-04-21 14:03 | 47.44023 | 11.63149 | 11522 ft | 240 kts | 311° |
| 2026-04-21 14:03 | 47.45284 | 11.61541 | 11501 ft | 239 kts | 311° |
| 2026-04-21 14:04 | 47.46550 | 11.59937 | 11440 ft | 240 kts | 311° |
| 2026-04-21 14:04 | 47.47820 | 11.58339 | 11503 ft | 239 kts | 312° |
| 2026-04-21 14:04 | 47.49091 | 11.56740 | 11535 ft | 242 kts | 310° |
| 2026-04-21 14:04 | 47.50399 | 11.55048 | 11642 ft | 260 kts | 311° |
| 2026-04-21 14:05 | 47.51839 | 11.53183 | 11872 ft | 288 kts | 312° |
| 2026-04-21 14:05 | 47.53423 | 11.51156 | 12214 ft | 311 kts | 313° |
| 2026-04-21 14:05 | 47.55103 | 11.49037 | 12931 ft | 321 kts | 313° |
| 2026-04-21 14:05 | 47.56811 | 11.46870 | 13704 ft | 326 kts | 313° |
| 2026-04-21 14:06 | 47.58553 | 11.44652 | 14404 ft | 333 kts | 312° |
| 2026-04-21 14:06 | 47.60359 | 11.42433 | 15102 ft | 343 kts | 317° |
| 2026-04-21 14:06 | 47.62511 | 11.40704 | 15807 ft | 360 kts | 329° |
| 2026-04-21 14:06 | 47.64946 | 11.39569 | 16505 ft | 377 kts | 341° |
| 2026-04-21 14:07 | 47.67600 | 11.39072 | 17166 ft | 390 kts | 347° |
| 2026-04-21 14:07 | 47.70327 | 11.38742 | 17809 ft | 397 kts | 348° |
| 2026-04-21 14:07 | 47.73102 | 11.38435 | 18417 ft | 402 kts | 348° |
| 2026-04-21 14:07 | 47.75914 | 11.38103 | 19004 ft | 408 kts | 348° |
| 2026-04-21 14:08 | 47.78757 | 11.37739 | 19582 ft | 413 kts | 347° |
| 2026-04-21 14:08 | 47.81642 | 11.37349 | 20159 ft | 419 kts | 348° |
| 2026-04-21 14:08 | 47.84556 | 11.36948 | 20719 ft | 424 kts | 348° |
| 2026-04-21 14:08 | 47.87523 | 11.36567 | 21271 ft | 430 kts | 349° |
| 2026-04-21 14:09 | 47.90531 | 11.36297 | 21800 ft | 436 kts | 351° |
| 2026-04-21 14:09 | 47.93582 | 11.36072 | 22304 ft | 442 kts | 351° |
| 2026-04-21 14:09 | 47.96664 | 11.35846 | 22786 ft | 446 kts | 351° |
| 2026-04-21 14:09 | 47.99785 | 11.35600 | 23259 ft | 451 kts | 351° |
| 2026-04-21 14:10 | 48.02933 | 11.35337 | 23724 ft | 455 kts | 351° |
| 2026-04-21 14:10 | 48.06107 | 11.35065 | 24165 ft | 459 kts | 351° |
| 2026-04-21 14:10 | 48.09252 | 11.34653 | 24598 ft | 461 kts | 348° |
| 2026-04-21 14:10 | 48.12443 | 11.34040 | 25032 ft | 464 kts | 347° |
| 2026-04-21 14:11 | 48.15654 | 11.33356 | 25445 ft | 468 kts | 346° |
| 2026-04-21 14:11 | 48.18893 | 11.32668 | 25855 ft | 472 kts | 347° |
| 2026-04-21 14:11 | 48.22162 | 11.32005 | 26248 ft | 476 kts | 347° |
| 2026-04-21 14:11 | 48.25460 | 11.31359 | 26628 ft | 480 kts | 348° |
| 2026-04-21 14:12 | 48.28787 | 11.30750 | 26993 ft | 484 kts | 349° |
| 2026-04-21 14:12 | 48.32143 | 11.30215 | 27386 ft | 487 kts | 350° |
| 2026-04-21 14:12 | 48.35524 | 11.29710 | 27783 ft | 489 kts | 350° |
| 2026-04-21 14:12 | 48.38915 | 11.29207 | 28147 ft | 491 kts | 350° |
| 2026-04-21 14:13 | 48.42327 | 11.28690 | 28499 ft | 494 kts | 350° |
| 2026-04-21 14:13 | 48.45750 | 11.28161 | 28843 ft | 496 kts | 350° |
| 2026-04-21 14:13 | 48.49191 | 11.27620 | 29172 ft | 498 kts | 349° |
| 2026-04-21 14:13 | 48.52651 | 11.27072 | 29504 ft | 500 kts | 349° |
| 2026-04-21 14:14 | 48.56116 | 11.26520 | 29814 ft | 503 kts | 349° |
| 2026-04-21 14:14 | 48.59606 | 11.25965 | 30116 ft | 505 kts | 350° |
| 2026-04-21 14:14 | 48.63104 | 11.25410 | 30402 ft | 507 kts | 350° |
| 2026-04-21 14:14 | 48.66621 | 11.24849 | 30707 ft | 508 kts | 349° |
| 2026-04-21 14:15 | 48.70130 | 11.24278 | 31107 ft | 507 kts | 349° |
| 2026-04-21 14:15 | 48.73627 | 11.23702 | 31565 ft | 505 kts | 349° |
| 2026-04-21 14:15 | 48.77111 | 11.23126 | 32014 ft | 503 kts | 349° |
| 2026-04-21 14:15 | 48.80588 | 11.22551 | 32403 ft | 502 kts | 349° |
| 2026-04-21 14:16 | 48.84063 | 11.21983 | 32755 ft | 502 kts | 350° |
| 2026-04-21 14:16 | 48.87557 | 11.21685 | 33116 ft | 504 kts | 355° |
| 2026-04-21 14:16 | 48.91069 | 11.21683 | 33528 ft | 504 kts | 357° |
| 2026-04-21 14:16 | 48.94569 | 11.21787 | 33838 ft | 505 kts | 358° |
| 2026-04-21 14:17 | 48.98080 | 11.21883 | 33897 ft | 511 kts | 357° |
| 2026-04-21 14:17 | 49.01687 | 11.21881 | 33774 ft | 520 kts | 355° |
| 2026-04-21 14:17 | 49.05309 | 11.21725 | 33715 ft | 524 kts | 353° |
| 2026-04-21 14:17 | 49.08963 | 11.21374 | 33832 ft | 523 kts | 351° |
| 2026-04-21 14:18 | 49.12567 | 11.20806 | 34117 ft | 519 kts | 348° |
| 2026-04-21 14:18 | 49.16068 | 11.20010 | 34434 ft | 514 kts | 346° |
| 2026-04-21 14:18 | 49.19614 | 11.18919 | 34661 ft | 511 kts | 342° |
| 2026-04-21 14:19 | 49.26425 | 11.15866 | 34661 ft | 513 kts | 335° |
| 2026-04-21 14:19 | 49.32982 | 11.11477 | 34599 ft | 512 kts | 327° |
| 2026-04-21 14:20 | 49.38948 | 11.05862 | 34832 ft | 502 kts | 319° |
| 2026-04-21 14:20 | 49.41696 | 11.02583 | 34945 ft | 498 kts | 314° |
| 2026-04-21 14:20 | 49.44254 | 10.99022 | 34996 ft | 495 kts | 310° |
| 2026-04-21 14:21 | 49.48779 | 10.91094 | 34967 ft | 491 kts | 301° |
| 2026-04-21 14:21 | 49.52394 | 10.82285 | 34998 ft | 484 kts | 292° |
| 2026-04-21 14:22 | 49.55011 | 10.72854 | 35137 ft | 475 kts | 283° |
| 2026-04-21 14:22 | 49.56597 | 10.63082 | 35182 ft | 468 kts | 274° |
| 2026-04-21 14:23 | 49.57144 | 10.53129 | 35136 ft | 464 kts | 265° |
| 2026-04-21 14:23 | 49.56657 | 10.43297 | 35172 ft | 458 kts | 257° |
| 2026-04-21 14:24 | 49.55199 | 10.33811 | 35276 ft | 453 kts | 249° |
| 2026-04-21 14:24 | 49.52783 | 10.24921 | 35264 ft | 450 kts | 240° |
| 2026-04-21 14:25 | 49.49465 | 10.16793 | 35228 ft | 448 kts | 231° |
| 2026-04-21 14:25 | 49.45347 | 10.09718 | 35273 ft | 446 kts | 223° |
| 2026-04-21 14:26 | 49.40482 | 10.03840 | 35586 ft | 439 kts | 213° |
| 2026-04-21 14:26 | 49.37901 | 10.01532 | 36321 ft | 426 kts | 209° |
| 2026-04-21 14:26 | 49.35379 | 9.99174 | 36236 ft | 421 kts | 220° |
| 2026-04-21 14:26 | 49.33418 | 9.95903 | 36186 ft | 416 kts | 236° |
| 2026-04-21 14:27 | 49.32236 | 9.91853 | 36175 ft | 422 kts | 253° |
| 2026-04-21 14:27 | 49.31934 | 9.87361 | 36205 ft | 429 kts | 269° |
| 2026-04-21 14:27 | 49.32549 | 9.82850 | 36201 ft | 441 kts | 286° |
| 2026-04-21 14:27 | 49.34054 | 9.78703 | 36203 ft | 453 kts | 303° |
| 2026-04-21 14:28 | 49.36341 | 9.75293 | 36191 ft | 467 kts | 319° |
| 2026-04-21 14:28 | 49.39240 | 9.72941 | 36201 ft | 479 kts | 336° |
| 2026-04-21 14:28 | 49.42533 | 9.71868 | 36202 ft | 490 kts | 353° |
| 2026-04-21 14:28 | 49.44798 | 9.71925 | 36199 ft | 495 kts | 4° |
| 2026-04-21 14:29 | 49.48158 | 9.73187 | 36198 ft | 501 kts | 21° |
| 2026-04-21 14:29 | 49.54421 | 9.77873 | 36178 ft | 500 kts | 12° |
| 2026-04-21 14:29 | 49.57829 | 9.78677 | 36193 ft | 494 kts | 356° |
| 2026-04-21 14:30 | 49.61257 | 9.78560 | 36211 ft | 495 kts | 0° |
| 2026-04-21 14:30 | 49.64674 | 9.79458 | 36214 ft | 501 kts | 14° |
| 2026-04-21 14:30 | 49.68000 | 9.81105 | 36191 ft | 505 kts | 17° |
| 2026-04-21 14:31 | 49.74616 | 9.84826 | 36194 ft | 507 kts | 19° |
| 2026-04-21 14:31 | 49.81247 | 9.88668 | 36190 ft | 509 kts | 19° |
| 2026-04-21 14:32 | 49.87890 | 9.92552 | 36191 ft | 511 kts | 19° |
| 2026-04-21 14:32 | 49.94540 | 9.96459 | 36197 ft | 511 kts | 19° |
| 2026-04-21 14:33 | 50.01193 | 10.00378 | 36198 ft | 511 kts | 19° |
| 2026-04-21 14:33 | 50.07837 | 10.04301 | 36195 ft | 510 kts | 19° |
| 2026-04-21 14:34 | 50.14460 | 10.08223 | 36197 ft | 509 kts | 19° |
| 2026-04-21 14:34 | 50.21074 | 10.12147 | 36197 ft | 508 kts | 19° |
| 2026-04-21 14:35 | 50.27667 | 10.16069 | 36194 ft | 506 kts | 19° |
| 2026-04-21 14:35 | 50.34235 | 10.19982 | 36197 ft | 505 kts | 19° |
| 2026-04-21 14:36 | 50.40796 | 10.23899 | 36202 ft | 504 kts | 19° |
| 2026-04-21 14:36 | 50.47304 | 10.27807 | 36185 ft | 505 kts | 21° |
| 2026-04-21 14:36 | 50.50365 | 10.30486 | 36187 ft | 506 kts | 38° |
| 2026-04-21 14:37 | 50.52922 | 10.34276 | 36215 ft | 504 kts | 50° |
| 2026-04-21 14:37 | 50.57356 | 10.42818 | 36195 ft | 505 kts | 53° |
| 2026-04-21 14:38 | 50.61662 | 10.51565 | 36195 ft | 506 kts | 54° |
| 2026-04-21 14:38 | 50.65949 | 10.60359 | 36197 ft | 506 kts | 54° |
| 2026-04-21 14:39 | 50.70236 | 10.69191 | 36197 ft | 508 kts | 54° |
| 2026-04-21 14:39 | 50.74526 | 10.78054 | 36198 ft | 508 kts | 54° |
| 2026-04-21 14:40 | 50.79264 | 10.86281 | 36178 ft | 510 kts | 32° |
| 2026-04-21 14:40 | 50.82448 | 10.88641 | 36213 ft | 505 kts | 14° |
| 2026-04-21 14:40 | 50.85872 | 10.89727 | 36203 ft | 500 kts | 1° |
| 2026-04-21 14:41 | 50.92809 | 10.90529 | 36199 ft | 500 kts | 1° |
| 2026-04-21 14:41 | 50.99743 | 10.91524 | 36192 ft | 501 kts | 2° |
| 2026-04-21 14:42 | 51.06693 | 10.92612 | 36194 ft | 502 kts | 2° |
| 2026-04-21 14:42 | 51.13638 | 10.93712 | 36196 ft | 502 kts | 2° |
| 2026-04-21 14:43 | 51.20582 | 10.94804 | 36200 ft | 502 kts | 2° |
| 2026-04-21 14:43 | 51.27533 | 10.95894 | 36195 ft | 502 kts | 2° |
| 2026-04-21 14:44 | 51.34485 | 10.96987 | 36198 ft | 502 kts | 2° |
| 2026-04-21 14:44 | 51.41436 | 10.98084 | 36192 ft | 502 kts | 2° |
| 2026-04-21 14:45 | 51.48376 | 10.99182 | 36201 ft | 501 kts | 2° |
| 2026-04-21 14:45 | 51.55318 | 11.00284 | 36192 ft | 501 kts | 2° |
| 2026-04-21 14:46 | 51.62257 | 11.01389 | 36195 ft | 501 kts | 2° |
| 2026-04-21 14:46 | 51.69183 | 11.02494 | 36197 ft | 500 kts | 2° |
| 2026-04-21 14:47 | 51.76060 | 11.03595 | 36189 ft | 499 kts | 2° |
| 2026-04-21 14:47 | 51.82974 | 11.04704 | 36118 ft | 500 kts | 2° |
| 2026-04-21 14:47 | 51.86439 | 11.05152 | 35980 ft | 498 kts | 358° |
| 2026-04-21 14:48 | 51.89872 | 11.04884 | 35842 ft | 491 kts | 349° |
| 2026-04-21 14:48 | 51.96640 | 11.03390 | 35621 ft | 492 kts | 347° |
| 2026-04-21 14:48 | 52.00046 | 11.02584 | 35112 ft | 501 kts | 347° |
| 2026-04-21 14:49 | 52.03503 | 11.01782 | 34494 ft | 501 kts | 348° |
| 2026-04-21 14:49 | 52.06955 | 11.01009 | 33836 ft | 500 kts | 348° |
| 2026-04-21 14:49 | 52.10387 | 11.00262 | 33324 ft | 496 kts | 348° |
| 2026-04-21 14:49 | 52.13789 | 10.99533 | 32846 ft | 491 kts | 348° |
| 2026-04-21 14:50 | 52.16020 | 10.99058 | 32583 ft | 487 kts | 348° |
| 2026-04-21 14:50 | 52.20489 | 10.98106 | 31918 ft | 482 kts | 348° |
| 2026-04-21 14:50 | 52.23799 | 10.97397 | 31479 ft | 477 kts | 348° |
| 2026-04-21 14:50 | 52.27073 | 10.96693 | 31036 ft | 473 kts | 348° |
| 2026-04-21 14:51 | 52.30322 | 10.95993 | 30594 ft | 469 kts | 348° |
| 2026-04-21 14:51 | 52.33535 | 10.95298 | 30155 ft | 464 kts | 348° |
| 2026-04-21 14:51 | 52.36729 | 10.94605 | 29719 ft | 460 kts | 348° |
| 2026-04-21 14:51 | 52.39886 | 10.93920 | 29275 ft | 456 kts | 347° |
| 2026-04-21 14:52 | 52.43017 | 10.93239 | 28827 ft | 452 kts | 347° |
| 2026-04-21 14:52 | 52.46119 | 10.92564 | 28383 ft | 448 kts | 347° |
| 2026-04-21 14:52 | 52.49199 | 10.91892 | 27940 ft | 445 kts | 347° |
| 2026-04-21 14:52 | 52.52255 | 10.91224 | 27499 ft | 441 kts | 347° |
| 2026-04-21 14:53 | 52.55290 | 10.90561 | 27059 ft | 438 kts | 347° |
| 2026-04-21 14:53 | 52.58301 | 10.89901 | 26626 ft | 435 kts | 347° |
| 2026-04-21 14:53 | 52.61294 | 10.89245 | 26195 ft | 432 kts | 347° |
| 2026-04-21 14:53 | 52.64265 | 10.88593 | 25763 ft | 429 kts | 347° |
| 2026-04-21 14:54 | 52.67207 | 10.87946 | 25343 ft | 425 kts | 346° |
| 2026-04-21 14:54 | 52.70110 | 10.87308 | 25207 ft | 414 kts | 346° |
| 2026-04-21 14:54 | 52.72921 | 10.86693 | 25184 ft | 401 kts | 346° |
| 2026-04-21 14:54 | 52.75638 | 10.86094 | 25172 ft | 387 kts | 346° |
| 2026-04-21 14:55 | 52.78257 | 10.85514 | 25177 ft | 374 kts | 346° |
| 2026-04-21 14:55 | 52.80797 | 10.84952 | 25192 ft | 363 kts | 345° |
| 2026-04-21 14:55 | 52.83253 | 10.84406 | 25183 ft | 363 kts | 345° |
| 2026-04-21 14:55 | 52.85805 | 10.83853 | 25209 ft | 374 kts | 346° |
| 2026-04-21 14:56 | 52.88356 | 10.83335 | 25187 ft | 366 kts | 346° |
| 2026-04-21 14:56 | 52.90846 | 10.82847 | 25166 ft | 354 kts | 346° |
| 2026-04-21 14:56 | 52.93265 | 10.82372 | 25008 ft | 348 kts | 346° |
| 2026-04-21 14:56 | 52.95690 | 10.81886 | 24703 ft | 346 kts | 346° |
| 2026-04-21 14:57 | 52.98059 | 10.81403 | 24276 ft | 349 kts | 345° |
| 2026-04-21 14:57 | 53.00492 | 10.80901 | 23664 ft | 357 kts | 345° |
| 2026-04-21 14:57 | 53.03031 | 10.80367 | 22549 ft | 380 kts | 345° |
| 2026-04-21 14:57 | 53.05728 | 10.79797 | 21358 ft | 401 kts | 346° |
| 2026-04-21 14:58 | 53.08560 | 10.79207 | 20205 ft | 418 kts | 346° |
| 2026-04-21 14:58 | 53.11424 | 10.78463 | 19652 ft | 408 kts | 337° |
| 2026-04-21 14:58 | 53.13915 | 10.76619 | 19403 ft | 381 kts | 318° |
| 2026-04-21 14:58 | 53.15936 | 10.73750 | 19192 ft | 389 kts | 306° |
| 2026-04-21 14:59 | 53.17657 | 10.70167 | 18950 ft | 403 kts | 300° |
| 2026-04-21 14:59 | 53.19298 | 10.66358 | 18700 ft | 405 kts | 300° |
| 2026-04-21 14:59 | 53.20927 | 10.62550 | 18444 ft | 402 kts | 300° |
| 2026-04-21 14:59 | 53.22550 | 10.58764 | 18182 ft | 399 kts | 300° |
| 2026-04-21 15:00 | 53.24163 | 10.55015 | 17934 ft | 397 kts | 300° |
| 2026-04-21 15:00 | 53.25772 | 10.51288 | 17675 ft | 394 kts | 300° |
| 2026-04-21 15:00 | 53.27374 | 10.47583 | 17433 ft | 392 kts | 300° |
| 2026-04-21 15:00 | 53.28969 | 10.43894 | 17174 ft | 391 kts | 300° |
| 2026-04-21 15:01 | 53.30555 | 10.40224 | 16857 ft | 389 kts | 300° |
| 2026-04-21 15:01 | 53.32129 | 10.36579 | 16471 ft | 384 kts | 300° |
| 2026-04-21 15:01 | 53.33685 | 10.32972 | 16045 ft | 380 kts | 300° |
| 2026-04-21 15:01 | 53.35220 | 10.29404 | 15630 ft | 376 kts | 300° |
| 2026-04-21 15:02 | 53.36742 | 10.25863 | 15212 ft | 373 kts | 300° |
| 2026-04-21 15:02 | 53.38256 | 10.22328 | 14695 ft | 372 kts | 300° |
| 2026-04-21 15:02 | 53.39757 | 10.18822 | 14246 ft | 369 kts | 301° |
| 2026-04-21 15:02 | 53.41239 | 10.15355 | 13800 ft | 364 kts | 301° |
| 2026-04-21 15:03 | 53.42686 | 10.11970 | 13486 ft | 357 kts | 301° |
| 2026-04-21 15:03 | 53.44116 | 10.08624 | 13368 ft | 353 kts | 301° |
| 2026-04-21 15:03 | 53.45549 | 10.05257 | 13238 ft | 357 kts | 301° |
| 2026-04-21 15:03 | 53.46923 | 10.01806 | 13078 ft | 353 kts | 293° |
| 2026-04-21 15:04 | 53.47628 | 9.97943 | 12967 ft | 344 kts | 276° |
| 2026-04-21 15:04 | 53.47636 | 9.93947 | 12747 ft | 345 kts | 264° |
| 2026-04-21 15:04 | 53.47120 | 9.89985 | 12403 ft | 350 kts | 255° |
| 2026-04-21 15:04 | 53.46037 | 9.86320 | 12001 ft | 352 kts | 240° |
| 2026-04-21 15:05 | 53.44534 | 9.83092 | 11638 ft | 350 kts | 235° |
| 2026-04-21 15:05 | 53.41377 | 9.76945 | 10889 ft | 346 kts | 233° |
| 2026-04-21 15:05 | 53.39818 | 9.73883 | 10493 ft | 345 kts | 233° |
| 2026-04-21 15:06 | 53.38275 | 9.70816 | 10110 ft | 342 kts | 233° |
| 2026-04-21 15:06 | 53.36758 | 9.67791 | 9726 ft | 335 kts | 232° |
| 2026-04-21 15:06 | 53.35282 | 9.64848 | 9356 ft | 324 kts | 232° |
| 2026-04-21 15:06 | 53.33853 | 9.62003 | 8980 ft | 314 kts | 231° |
| 2026-04-21 15:07 | 53.32499 | 9.59274 | 8602 ft | 295 kts | 234° |
| 2026-04-21 15:07 | 53.31638 | 9.56278 | 8226 ft | 281 kts | 255° |
| 2026-04-21 15:07 | 53.31469 | 9.53092 | 7886 ft | 272 kts | 269° |
| 2026-04-21 15:07 | 53.31818 | 9.50044 | 7676 ft | 263 kts | 282° |
| 2026-04-21 15:08 | 53.32510 | 9.47285 | 7383 ft | 260 kts | 294° |
| 2026-04-21 15:08 | 53.33680 | 9.44987 | 7000 ft | 267 kts | 320° |
| 2026-04-21 15:08 | 53.35476 | 9.44058 | 6660 ft | 276 kts | 358° |
| 2026-04-21 15:08 | 53.37287 | 9.44958 | 6396 ft | 273 kts | 35° |
| 2026-04-21 15:09 | 53.38495 | 9.47281 | 6204 ft | 259 kts | 64° |
| 2026-04-21 15:09 | 53.39359 | 9.49879 | 6003 ft | 254 kts | 62° |
| 2026-04-21 15:09 | 53.40307 | 9.52361 | 5772 ft | 252 kts | 57° |
| 2026-04-21 15:09 | 53.41382 | 9.54792 | 5302 ft | 267 kts | 54° |
| 2026-04-21 15:10 | 53.42545 | 9.57219 | 4973 ft | 264 kts | 53° |
| 2026-04-21 15:10 | 53.43687 | 9.59546 | 4877 ft | 252 kts | 53° |
| 2026-04-21 15:10 | 53.44773 | 9.61748 | 4820 ft | 237 kts | 53° |
| 2026-04-21 15:10 | 53.45746 | 9.63735 | 4907 ft | 221 kts | 51° |
| 2026-04-21 15:11 | 53.46702 | 9.65675 | 4679 ft | 208 kts | 52° |
| 2026-04-21 15:11 | 53.47602 | 9.67502 | 4407 ft | 197 kts | 51° |
| 2026-04-21 15:11 | 53.48453 | 9.69235 | 4146 ft | 187 kts | 52° |
| 2026-04-21 15:11 | 53.49265 | 9.70890 | 3845 ft | 183 kts | 51° |
| 2026-04-21 15:12 | 53.50065 | 9.72515 | 3610 ft | 177 kts | 51° |
| 2026-04-21 15:12 | 53.50839 | 9.74089 | 3373 ft | 171 kts | 51° |
| 2026-04-21 15:12 | 53.51574 | 9.75585 | 3177 ft | 162 kts | 51° |
| 2026-04-21 15:12 | 53.52279 | 9.77014 | 2961 ft | 157 kts | 51° |
| 2026-04-21 15:13 | 53.52742 | 9.77960 | 2864 ft | 159 kts | 51° |
| 2026-04-21 15:13 | 53.53689 | 9.79878 | 2563 ft | 156 kts | 50° |
| 2026-04-21 15:13 | 53.54368 | 9.81255 | 2347 ft | 150 kts | 51° |
| 2026-04-21 15:13 | 53.55019 | 9.82575 | 2148 ft | 146 kts | 51° |
| 2026-04-21 15:14 | 53.55655 | 9.83869 | 1973 ft | 138 kts | 50° |
| 2026-04-21 15:14 | 53.56264 | 9.85102 | 1805 ft | 137 kts | 48° |
| 2026-04-21 15:14 | 53.56895 | 9.86313 | 1618 ft | 137 kts | 52° |
| 2026-04-21 15:14 | 53.57506 | 9.87530 | 1411 ft | 135 kts | 52° |
| 2026-04-21 15:15 | 53.57902 | 9.88950 | 1211 ft | 138 kts | 69° |
| 2026-04-21 15:15 | 53.58386 | 9.90272 | 1035 ft | 129 kts | 47° |
| 2026-04-21 15:15 | 53.59030 | 9.91221 | 889 ft | 119 kts | 39° |
| 2026-04-21 15:15 | 53.59667 | 9.92102 | 650 ft | 118 kts | 45° |
| 2026-04-21 15:16 | 53.60230 | 9.93133 | 548 ft | 120 kts | 51° |
| 2026-04-21 15:16 | 53.60749 | 9.94188 | 402 ft | 116 kts | 51° |
| 2026-04-21 15:16 | 53.61288 | 9.95272 | 265 ft | 123 kts | 50° |
| 2026-04-21 15:16 | 53.61819 | 9.96363 | 95 ft | 117 kts | 50° |
| 2026-04-21 15:17 | 53.62314 | 9.97367 | 48 ft | 100 kts | 51° |
| 2026-04-21 15:17 | 53.62706 | 9.98152 | 44 ft | 72 kts | 50° |
| 2026-04-21 15:17 | 53.62949 | 9.98642 | 42 ft | 38 kts | 52° |
| 2026-04-21 15:17 | 53.63061 | 9.98888 | 43 ft | 24 kts | 60° |
| 2026-04-21 15:18 | 53.63089 | 9.99160 | 43 ft | 25 kts | 96° |
| 2026-04-21 15:18 | 53.63081 | 9.99210 | 42 ft | 5 kts | 122° |